Time;durP1;ratioP1;P1;durP2;ratioP2;P2;SDS_P1;SDS_P2;PMS_P1;PMS_P2;Temp;Humidity;BMP_temperature;BMP_pressure;BME280_temperature;BME280_humidity;BME280_pressure;Samples;Min_cycle;Max_cycle;Signal;HPM_P1;HPM_P2
2021/05/17 00:00:57;;;;;;;0.20;0.20;;;9.20;99.90;;;;;;5019168;28;20274;-79
2021/05/17 00:03:25;;;;;;;0.30;0.30;;;9.10;99.90;;;;;;5016521;28;20199;-78
2021/05/17 00:05:52;;;;;;;0.20;0.20;;;9.10;99.90;;;;;;5016617;28;20171;-76
2021/05/17 00:08:17;;;;;;;0.20;0.20;;;9.10;99.90;;;;;;5016915;28;20603;-77
2021/05/17 00:10:43;;;;;;;0.30;0.30;;;9.20;99.90;;;;;;5018191;28;20186;-80
2021/05/17 00:13:09;;;;;;;0.30;0.30;;;9.10;99.90;;;;;;5019980;28;20184;-77
2021/05/17 00:15:37;;;;;;;0.20;0.20;;;9.10;99.90;;;;;;5016332;28;20194;-79
2021/05/17 00:18:03;;;;;;;0.33;0.33;;;9.10;99.90;;;;;;5015674;28;20689;-79
2021/05/17 00:20:28;;;;;;;0.53;0.40;;;9.00;99.90;;;;;;5017340;28;20184;-78
2021/05/17 00:22:54;;;;;;;0.87;0.50;;;9.00;99.90;;;;;;5016717;28;20203;-78
2021/05/17 00:25:24;;;;;;;0.20;0.20;;;9.00;99.90;;;;;;5017407;28;20261;-79
2021/05/17 00:27:55;;;;;;;0.30;0.30;;;9.00;99.90;;;;;;5017554;28;20218;-77
2021/05/17 00:30:23;;;;;;;0.20;0.20;;;9.00;99.90;;;;;;5019039;28;20207;-79
2021/05/17 00:32:49;;;;;;;0.47;0.47;;;9.00;99.90;;;;;;5017754;28;20184;-79
2021/05/17 00:35:17;;;;;;;0.70;0.40;;;8.90;99.90;;;;;;5017457;28;20188;-79
2021/05/17 00:37:43;;;;;;;0.50;0.30;;;8.90;99.90;;;;;;5019264;28;20207;-78
2021/05/17 00:40:11;;;;;;;0.30;0.30;;;8.90;99.90;;;;;;5017661;28;20322;-78
2021/05/17 00:42:37;;;;;;;0.20;0.20;;;8.80;99.90;;;;;;5018457;28;20234;-77
2021/05/17 00:45:06;;;;;;;0.20;0.20;;;8.80;99.90;;;;;;5018325;28;20610;-78
2021/05/17 00:47:38;;;;;;;0.20;0.20;;;8.80;99.90;;;;;;5018050;28;20200;-78
2021/05/17 00:50:05;;;;;;;1.70;0.30;;;8.70;99.90;;;;;;5016225;28;20255;-78
2021/05/17 00:52:32;;;;;;;0.77;0.40;;;8.80;99.90;;;;;;5017202;28;20209;-77
2021/05/17 00:54:58;;;;;;;0.20;0.20;;;8.80;99.90;;;;;;5016758;28;20258;-77
2021/05/17 00:57:23;;;;;;;0.20;0.20;;;8.80;99.90;;;;;;5018111;28;20207;-79
2021/05/17 00:59:49;;;;;;;0.30;0.30;;;8.80;99.90;;;;;;5032723;28;21120;-79
2021/05/17 01:02:15;;;;;;;0.33;0.33;;;8.90;99.90;;;;;;5017951;28;20250;-79
2021/05/17 01:04:41;;;;;;;0.30;0.30;;;8.80;99.90;;;;;;5018625;28;20184;-79
2021/05/17 01:07:07;;;;;;;0.17;0.17;;;8.80;99.90;;;;;;5016581;28;20215;-79
2021/05/17 01:09:34;;;;;;;0.30;0.30;;;8.80;99.90;;;;;;5018257;28;20210;-77
2021/05/17 01:12:02;;;;;;;0.40;0.30;;;8.70;99.90;;;;;;5032253;28;20206;-77
2021/05/17 01:14:27;;;;;;;0.30;0.20;;;8.80;99.90;;;;;;5017883;28;20198;-79
2021/05/17 01:16:54;;;;;;;0.20;0.20;;;8.80;99.90;;;;;;5018124;28;20204;-78
2021/05/17 01:19:49;;;;;;;0.30;0.30;;;8.70;99.90;;;;;;5016698;28;20187;-79
2021/05/17 01:22:22;;;;;;;0.20;0.20;;;8.50;99.90;;;;;;5017088;28;20696;-79
2021/05/17 01:24:48;;;;;;;0.20;0.20;;;8.40;99.90;;;;;;5016341;28;20175;-78
2021/05/17 01:27:14;;;;;;;0.33;0.30;;;8.30;99.90;;;;;;5022860;28;20619;-79
2021/05/17 01:29:43;;;;;;;0.20;0.20;;;8.40;99.90;;;;;;5016651;28;20211;-79
2021/05/17 01:32:10;;;;;;;0.37;0.37;;;8.30;99.90;;;;;;5024419;28;20419;-79
2021/05/17 01:34:39;;;;;;;0.20;0.20;;;8.20;99.90;;;;;;5015855;28;20247;-79
2021/05/17 01:37:08;;;;;;;0.20;0.20;;;8.20;99.90;;;;;;5032087;28;20202;-78
2021/05/17 01:39:36;;;;;;;0.50;0.27;;;8.20;99.90;;;;;;5016655;28;20285;-79
2021/05/17 01:42:02;;;;;;;0.20;0.20;;;8.20;99.90;;;;;;5016473;28;20179;-79
2021/05/17 01:44:29;;;;;;;0.30;0.30;;;8.10;99.90;;;;;;5015682;28;20215;-79
2021/05/17 01:46:59;;;;;;;0.27;0.20;;;8.10;99.90;;;;;;5017066;28;20200;-79
2021/05/17 01:49:26;;;;;;;0.57;0.40;;;8.10;99.90;;;;;;5016092;28;20203;-79
2021/05/17 01:51:52;;;;;;;0.37;0.37;;;8.00;99.90;;;;;;5016290;28;20191;-79
2021/05/17 01:54:19;;;;;;;0.23;0.23;;;8.00;99.90;;;;;;5015396;28;20195;-79
2021/05/17 01:56:45;;;;;;;0.30;0.30;;;8.10;99.90;;;;;;5016962;28;20265;-78
2021/05/17 01:59:11;;;;;;;0.57;0.40;;;8.10;99.90;;;;;;5016795;28;20187;-79
2021/05/17 02:01:37;;;;;;;0.20;0.20;;;8.10;99.90;;;;;;5016062;28;20183;-78
2021/05/17 02:04:05;;;;;;;0.30;0.30;;;8.00;99.90;;;;;;5017661;28;20302;-79
2021/05/17 02:06:30;;;;;;;0.20;0.20;;;8.00;99.90;;;;;;5015675;28;20230;-76
2021/05/17 02:08:56;;;;;;;0.20;0.20;;;8.00;99.90;;;;;;5016142;28;20179;-77
2021/05/17 02:11:24;;;;;;;0.63;0.40;;;8.00;99.90;;;;;;5014879;28;20183;-79
2021/05/17 02:13:50;;;;;;;0.40;0.30;;;8.00;99.90;;;;;;5016137;28;20195;-79
2021/05/17 02:16:17;;;;;;;0.30;0.30;;;8.00;99.90;;;;;;5015663;28;20198;-78
2021/05/17 02:18:45;;;;;;;0.57;0.57;;;8.00;99.90;;;;;;5014837;28;20254;-79
2021/05/17 02:21:12;;;;;;;0.30;0.30;;;8.00;99.90;;;;;;5013404;28;20193;-78
2021/05/17 02:23:38;;;;;;;0.33;0.33;;;7.90;99.90;;;;;;5009409;28;20290;-78
2021/05/17 02:26:04;;;;;;;0.30;0.30;;;7.90;99.90;;;;;;5013486;28;20191;-77
2021/05/17 02:28:30;;;;;;;0.33;0.30;;;7.90;99.90;;;;;;5015045;28;20206;-79
2021/05/17 02:30:56;;;;;;;0.50;0.40;;;7.90;99.90;;;;;;5015157;28;20187;-77
2021/05/17 02:33:22;;;;;;;0.40;0.40;;;7.90;99.90;;;;;;5011515;28;20191;-79
2021/05/17 02:35:48;;;;;;;0.40;0.40;;;7.90;99.90;;;;;;5015505;28;20247;-78
2021/05/17 02:38:14;;;;;;;0.40;0.30;;;7.90;99.90;;;;;;5015514;28;20223;-77
2021/05/17 02:40:41;;;;;;;0.30;0.30;;;7.90;99.90;;;;;;5015726;28;20199;-78
2021/05/17 02:43:11;;;;;;;0.33;0.33;;;7.90;99.90;;;;;;5015112;28;20600;-78
2021/05/17 02:45:39;;;;;;;0.33;0.30;;;7.90;99.90;;;;;;5015874;28;20179;-78
2021/05/17 02:48:07;;;;;;;0.50;0.50;;;7.80;99.90;;;;;;5015498;28;20583;-79
2021/05/17 02:50:37;;;;;;;0.43;0.40;;;7.80;99.90;;;;;;5016091;28;20187;-79
2021/05/17 02:53:36;;;;;;;0.30;0.30;;;7.80;99.90;;;;;;5019906;28;20183;-79
2021/05/17 02:56:23;;;;;;;0.27;0.20;;;7.80;99.90;;;;;;5020902;28;20175;-79
2021/05/17 02:58:51;;;;;;;0.30;0.30;;;7.80;99.90;;;;;;5019042;28;20183;-79
2021/05/17 03:01:28;;;;;;;0.30;0.30;;;7.90;99.90;;;;;;5018805;28;20201;-78
2021/05/17 03:03:59;;;;;;;0.20;0.20;;;7.80;99.90;;;;;;5018845;28;20213;-79
2021/05/17 03:06:36;;;;;;;0.40;0.40;;;7.90;99.90;;;;;;5019047;28;20191;-78
2021/05/17 03:09:07;;;;;;;0.30;0.30;;;7.80;99.90;;;;;;5020367;28;20191;-79
2021/05/17 03:11:37;;;;;;;0.30;0.30;;;7.80;99.90;;;;;;5019501;28;21343;-75
2021/05/17 03:14:04;;;;;;;0.23;0.23;;;7.70;99.90;;;;;;5019164;28;20179;-78
2021/05/17 03:16:31;;;;;;;0.60;0.60;;;7.70;99.90;;;;;;5020126;28;20233;-79
2021/05/17 03:18:57;;;;;;;0.40;0.30;;;7.70;99.90;;;;;;5020461;28;20261;-79
2021/05/17 03:21:27;;;;;;;0.43;0.43;;;7.70;99.90;;;;;;5020038;28;20203;-77
2021/05/17 03:23:54;;;;;;;0.50;0.40;;;7.70;99.90;;;;;;5019068;28;20209;-79
2021/05/17 03:26:22;;;;;;;0.40;0.40;;;7.70;99.90;;;;;;5018764;28;20194;-79
2021/05/17 03:28:48;;;;;;;0.30;0.30;;;7.70;99.90;;;;;;5019590;28;20263;-79
2021/05/17 03:31:14;;;;;;;0.27;0.27;;;7.60;99.90;;;;;;5017984;28;20750;-78
2021/05/17 03:33:39;;;;;;;0.40;0.40;;;7.60;99.90;;;;;;5019419;28;20187;-79
2021/05/17 03:36:05;;;;;;;0.20;0.20;;;7.60;99.90;;;;;;5019665;28;20187;-79
2021/05/17 03:38:31;;;;;;;0.30;0.30;;;7.60;99.90;;;;;;5020043;28;20187;-79
2021/05/17 03:40:57;;;;;;;0.30;0.30;;;7.70;99.90;;;;;;5018165;28;20195;-79
2021/05/17 03:43:23;;;;;;;0.40;0.40;;;7.90;99.90;;;;;;5019027;28;20755;-77
2021/05/17 03:45:48;;;;;;;0.40;0.40;;;8.10;99.90;;;;;;5018909;28;20194;-78
2021/05/17 03:48:14;;;;;;;0.30;0.30;;;8.10;99.90;;;;;;5019834;28;20207;-78
2021/05/17 03:50:39;;;;;;;0.33;0.33;;;8.30;99.90;;;;;;5019514;28;20267;-79
2021/05/17 03:53:05;;;;;;;1.20;0.53;;;8.30;99.90;;;;;;5019676;28;20271;-79
2021/05/17 03:55:31;;;;;;;0.27;0.27;;;8.40;99.90;;;;;;5019041;28;20183;-80
2021/05/17 03:57:58;;;;;;;0.30;0.30;;;8.50;99.90;;;;;;5018533;28;20230;-78
2021/05/17 04:00:27;;;;;;;0.80;0.57;;;8.40;99.90;;;;;;5016796;28;20226;-79
2021/05/17 04:02:53;;;;;;;1.00;0.77;;;8.40;99.90;;;;;;5017181;28;20254;-79
2021/05/17 04:13:22;;;;;;;0.20;0.20;;;8.70;99.90;;;;;;5019733;28;20267;-79
2021/05/17 04:15:50;;;;;;;0.47;0.47;;;8.80;99.90;;;;;;5017261;28;20183;-79
2021/05/17 04:18:17;;;;;;;0.70;0.70;;;8.90;99.90;;;;;;5017424;28;20211;-78
2021/05/17 04:20:43;;;;;;;4.23;0.83;;;9.00;99.90;;;;;;5017713;28;20233;-79
2021/05/17 04:23:08;;;;;;;0.50;0.50;;;9.00;99.90;;;;;;5017071;28;20215;-79
2021/05/17 04:25:34;;;;;;;0.50;0.50;;;9.10;99.90;;;;;;5017659;28;20187;-79
2021/05/17 04:28:00;;;;;;;3.23;0.80;;;9.20;99.90;;;;;;5018310;28;20553;-79
2021/05/17 04:30:26;;;;;;;0.60;0.60;;;9.20;99.90;;;;;;5018195;28;20327;-77
2021/05/17 04:32:51;;;;;;;0.60;0.60;;;9.20;99.90;;;;;;5018120;28;20186;-80
2021/05/17 04:35:17;;;;;;;0.37;0.30;;;9.30;99.90;;;;;;5017016;28;20192;-79
2021/05/17 04:37:42;;;;;;;0.50;0.43;;;9.30;99.90;;;;;;5018349;28;20206;-79
2021/05/17 04:40:09;;;;;;;1.33;0.70;;;9.40;99.90;;;;;;5017616;28;20192;-78
2021/05/17 04:42:35;;;;;;;0.50;0.50;;;10.10;99.90;;;;;;5019099;28;20196;-78
2021/05/17 04:45:01;;;;;;;0.60;0.55;;;11.20;99.90;;;;;;5016412;28;20243;-78
2021/05/17 04:47:27;;;;;;;0.57;0.57;;;12.30;99.90;;;;;;5015869;28;20199;-77
2021/05/17 04:49:52;;;;;;;0.75;0.57;;;12.90;99.90;;;;;;5016935;28;20237;-77
2021/05/17 04:52:18;;;;;;;0.68;0.40;;;13.60;99.90;;;;;;5017220;28;20203;-78
2021/05/17 04:54:44;;;;;;;0.30;0.30;;;14.40;99.90;;;;;;5016676;28;20183;-79
2021/05/17 04:57:09;;;;;;;2.28;0.90;;;15.00;99.90;;;;;;5015726;28;20208;-78
2021/05/17 04:59:35;;;;;;;0.60;0.60;;;15.60;99.90;;;;;;5016594;28;21289;-77
2021/05/17 05:02:01;;;;;;;0.57;0.50;;;16.30;99.90;;;;;;5016827;28;20184;-76
2021/05/17 05:04:26;;;;;;;0.50;0.50;;;16.80;99.90;;;;;;5014574;28;20250;-78
2021/05/17 05:06:52;;;;;;;0.50;0.50;;;16.60;99.90;;;;;;5015454;28;20237;-78
2021/05/17 05:09:17;;;;;;;0.40;0.40;;;17.00;99.90;;;;;;5015034;28;20187;-79
2021/05/17 05:11:43;;;;;;;1.98;0.60;;;17.30;99.90;;;;;;5013583;28;20176;-77
2021/05/17 05:14:09;;;;;;;1.70;0.57;;;17.70;99.90;;;;;;5011535;28;20187;-77
2021/05/17 05:16:34;;;;;;;0.88;0.60;;;18.10;99.90;;;;;;5014053;28;20210;-78
2021/05/17 05:19:00;;;;;;;0.85;0.80;;;18.20;99.90;;;;;;5013498;28;20188;-78
2021/05/17 05:21:25;;;;;;;0.90;0.40;;;18.30;99.90;;;;;;5011710;28;20188;-77
2021/05/17 05:23:51;;;;;;;0.40;0.40;;;18.30;99.90;;;;;;5012912;28;20230;-77
2021/05/17 05:31:41;;;;;;;0.60;0.60;;;19.00;99.90;;;;;;5013754;28;20175;-79
2021/05/17 05:34:06;;;;;;;0.77;0.77;;;19.10;99.90;;;;;;5011361;28;20225;-77
2021/05/17 05:36:32;;;;;;;0.55;0.50;;;18.90;99.90;;;;;;5013082;28;20207;-77
2021/05/17 05:38:59;;;;;;;0.88;0.70;;;18.80;99.90;;;;;;5013058;28;21145;-80
2021/05/17 05:41:25;;;;;;;1.42;0.80;;;18.40;99.90;;;;;;5009224;28;20191;-77
2021/05/17 05:43:50;;;;;;;1.02;0.50;;;18.40;99.90;;;;;;5007361;28;20200;-76
2021/05/17 05:46:16;;;;;;;0.68;0.50;;;17.90;99.90;;;;;;5011969;28;20236;-78
2021/05/17 05:48:48;;;;;;;3.38;0.82;;;17.60;99.90;;;;;;5012315;28;20231;-78
2021/05/17 05:51:18;;;;;;;1.55;0.85;;;17.50;99.90;;;;;;5013689;28;20163;-77
2021/05/17 05:53:44;;;;;;;0.88;0.68;;;18.10;99.90;;;;;;5010930;28;20183;-78
2021/05/17 05:56:10;;;;;;;0.60;0.60;;;18.50;99.90;;;;;;5012219;28;20190;-79
2021/05/17 05:58:36;;;;;;;1.02;0.80;;;18.70;99.90;;;;;;5011897;28;20419;-78
2021/05/17 06:01:03;;;;;;;0.93;0.50;;;18.20;99.90;;;;;;5009830;28;20183;-77
2021/05/17 06:03:28;;;;;;;0.50;0.50;;;18.60;99.90;;;;;;5009045;28;20677;-77
2021/05/17 06:05:54;;;;;;;0.55;0.50;;;19.00;99.90;;;;;;5008699;28;20226;-78
2021/05/17 06:08:20;;;;;;;0.57;0.47;;;19.10;99.90;;;;;;5010450;28;20697;-77
2021/05/17 06:10:45;;;;;;;0.70;0.60;;;19.10;99.90;;;;;;5011859;28;20188;-77
2021/05/17 06:13:12;;;;;;;2.47;0.63;;;19.30;99.90;;;;;;5008860;28;20270;-78
2021/05/17 06:15:40;;;;;;;0.80;0.80;;;19.30;99.90;;;;;;5012054;28;20208;-78
2021/05/17 06:18:06;;;;;;;1.27;0.98;;;18.70;99.90;;;;;;5010596;28;20207;-77
2021/05/17 06:20:32;;;;;;;1.05;0.70;;;18.40;99.90;;;;;;5013696;28;20669;-78
2021/05/17 06:22:58;;;;;;;0.80;0.80;;;17.90;99.90;;;;;;5013940;28;20203;-77
2021/05/17 06:25:26;;;;;;;1.98;0.80;;;17.80;99.90;;;;;;5010601;28;20191;-75
2021/05/17 06:27:52;;;;;;;1.33;0.80;;;18.50;99.90;;;;;;5011497;28;20211;-76
2021/05/17 06:30:19;;;;;;;1.15;1.08;;;18.80;99.90;;;;;;5013958;28;20184;-77
2021/05/17 06:32:46;;;;;;;0.80;0.80;;;18.60;99.90;;;;;;5014014;28;20229;-76
2021/05/17 06:35:13;;;;;;;2.40;1.10;;;18.20;99.90;;;;;;5014905;28;20206;-79
2021/05/17 06:37:39;;;;;;;1.80;1.20;;;17.60;99.90;;;;;;5016639;28;20329;-78
2021/05/17 06:40:06;;;;;;;1.02;0.80;;;17.10;99.90;;;;;;5016206;28;20215;-77
2021/05/17 06:42:32;;;;;;;1.48;1.00;;;16.40;99.90;;;;;;5016906;28;20214;-77
2021/05/17 06:44:57;;;;;;;1.23;1.00;;;16.20;99.90;;;;;;5014857;28;20187;-78
2021/05/17 06:47:24;;;;;;;1.00;0.95;;;16.10;99.90;;;;;;5015308;28;20199;-77
2021/05/17 06:49:49;;;;;;;1.60;1.45;;;16.10;99.90;;;;;;5014299;28;20187;-78
2021/05/17 06:52:16;;;;;;;1.65;1.10;;;16.10;99.90;;;;;;5016233;28;20190;-78
2021/05/17 06:54:45;;;;;;;1.23;1.00;;;15.60;99.90;;;;;;5015102;28;20195;-78
2021/05/17 06:59:48;;;;;;;1.50;1.10;;;15.60;99.90;;;;;;5015351;28;20211;-77
2021/05/17 07:02:19;;;;;;;2.03;1.25;;;15.60;99.90;;;;;;5015388;28;20239;-77
2021/05/17 07:04:46;;;;;;;1.42;1.02;;;15.40;99.90;;;;;;5016048;28;20211;-77
2021/05/17 07:07:19;;;;;;;2.58;1.27;;;15.40;99.90;;;;;;5015636;28;20467;-76
2021/05/17 07:12:29;;;;;;;1.60;1.50;;;15.10;99.90;;;;;;5015327;28;20250;-78
2021/05/17 07:14:58;;;;;;;2.22;1.42;;;15.20;99.90;;;;;;5016120;28;20192;-78
2021/05/17 07:17:23;;;;;;;2.03;1.55;;;15.30;99.90;;;;;;5015336;28;20239;-78
2021/05/17 07:19:49;;;;;;;1.88;1.20;;;15.30;99.90;;;;;;5016105;28;20451;-77
2021/05/17 07:24:59;;;;;;;3.08;1.30;;;15.30;99.90;;;;;;5016177;28;20195;-78
2021/05/17 07:27:24;;;;;;;1.23;1.05;;;15.10;99.90;;;;;;5016137;28;20204;-77
2021/05/17 07:29:51;;;;;;;1.52;1.30;;;15.20;99.90;;;;;;5016203;28;20207;-77
2021/05/17 07:32:17;;;;;;;2.30;1.00;;;15.40;99.90;;;;;;5016259;28;20295;-77
2021/05/17 07:34:42;;;;;;;1.83;1.48;;;15.70;99.90;;;;;;5015998;28;20207;-77
2021/05/17 07:37:08;;;;;;;1.77;1.25;;;15.80;99.90;;;;;;5018466;28;20203;-77
2021/05/17 07:39:34;;;;;;;1.65;1.35;;;15.80;99.90;;;;;;5018943;28;20416;-78
2021/05/17 07:42:01;;;;;;;1.90;1.27;;;15.80;99.90;;;;;;5017449;28;20192;-77
2021/05/17 07:44:26;;;;;;;1.70;1.20;;;16.20;99.90;;;;;;5018427;28;20609;-77
2021/05/17 07:46:52;;;;;;;0.80;0.77;;;16.70;99.90;;;;;;5018476;28;20626;-78
2021/05/17 07:49:32;;;;;;;1.85;1.08;;;16.60;99.90;;;;;;5019115;28;20558;-78
2021/05/17 07:51:58;;;;;;;1.05;0.95;;;16.60;99.90;;;;;;5018105;28;20460;-78
2021/05/17 07:54:25;;;;;;;1.92;1.17;;;16.60;99.90;;;;;;5017365;28;20563;-78
2021/05/17 07:56:51;;;;;;;2.22;1.20;;;16.80;99.90;;;;;;5016971;28;20233;-76
2021/05/17 07:59:16;;;;;;;1.73;1.23;;;16.80;99.90;;;;;;5015046;28;20534;-78
2021/05/17 08:01:42;;;;;;;2.38;1.67;;;16.60;99.90;;;;;;5013481;28;20191;-77
2021/05/17 08:04:08;;;;;;;2.65;1.55;;;16.90;99.90;;;;;;5010234;28;20207;-77
2021/05/17 08:06:33;;;;;;;1.80;1.17;;;17.00;99.90;;;;;;5008870;28;20211;-77
2021/05/17 08:08:59;;;;;;;1.35;1.23;;;17.10;99.90;;;;;;5012693;28;20180;-77
2021/05/17 08:11:24;;;;;;;1.65;1.23;;;17.10;99.90;;;;;;5011294;28;20195;-76
2021/05/17 08:13:50;;;;;;;1.40;1.30;;;17.00;99.90;;;;;;5011959;28;20556;-77
2021/05/17 08:16:16;;;;;;;1.20;1.10;;;17.00;99.90;;;;;;5012064;28;20242;-77
2021/05/17 08:18:43;;;;;;;1.15;1.05;;;17.20;99.90;;;;;;5012247;28;20187;-76
2021/05/17 08:21:09;;;;;;;2.95;1.25;;;17.60;99.90;;;;;;5012383;28;20587;-78
2021/05/17 08:23:36;;;;;;;1.63;1.20;;;17.70;99.90;;;;;;5010937;28;21101;-78
2021/05/17 08:26:05;;;;;;;1.20;1.00;;;17.90;99.90;;;;;;5011243;28;20179;-77
2021/05/17 08:28:31;;;;;;;1.88;1.25;;;17.90;99.90;;;;;;5009743;28;20210;-79
2021/05/17 08:30:58;;;;;;;1.40;1.05;;;17.80;99.90;;;;;;5011201;28;20188;-79
2021/05/17 08:33:24;;;;;;;1.17;1.05;;;17.40;99.90;;;;;;5008628;28;20202;-78
2021/05/17 08:35:50;;;;;;;1.65;0.98;;;17.20;99.90;;;;;;5007389;28;20226;-80
2021/05/17 08:38:16;;;;;;;1.00;0.80;;;17.10;99.90;;;;;;5008666;28;20284;-80
2021/05/17 08:40:43;;;;;;;1.05;0.93;;;17.20;99.90;;;;;;5009104;28;20187;-78
2021/05/17 08:43:09;;;;;;;1.45;1.30;;;17.30;99.90;;;;;;5008393;28;20209;-79
2021/05/17 08:45:35;;;;;;;2.35;1.50;;;17.10;99.90;;;;;;5008275;28;20192;-80
2021/05/17 08:48:01;;;;;;;2.17;1.17;;;16.80;99.90;;;;;;5009910;28;20722;-79
2021/05/17 08:50:27;;;;;;;1.20;1.10;;;16.90;99.90;;;;;;5008657;28;20680;-79
2021/05/17 08:52:53;;;;;;;1.10;1.00;;;17.50;99.90;;;;;;5007844;28;20642;-81
2021/05/17 08:55:20;;;;;;;1.00;0.90;;;17.40;99.90;;;;;;5007944;28;20195;-78
2021/05/17 08:57:47;;;;;;;0.70;0.70;;;17.60;99.90;;;;;;5007395;28;20199;-79
2021/05/17 09:00:14;;;;;;;1.50;1.05;;;17.80;99.90;;;;;;5007106;28;20187;-79
2021/05/17 09:02:40;;;;;;;0.93;0.88;;;18.00;99.90;;;;;;5010587;28;20255;-79
2021/05/17 09:05:26;;;;;;;0.80;0.80;;;17.80;99.90;;;;;;5008825;28;20175;-80
2021/05/17 09:07:54;;;;;;;0.93;0.90;;;18.20;99.90;;;;;;5012673;28;20719;-75
2021/05/17 09:10:33;;;;;;;1.35;1.00;;;18.30;99.90;;;;;;5005693;28;20191;-79
2021/05/17 09:13:06;;;;;;;2.20;1.02;;;18.00;99.90;;;;;;5009705;28;20194;-76
2021/05/17 09:15:43;;;;;;;2.67;1.00;;;18.00;99.90;;;;;;5015908;28;20657;-77
2021/05/17 09:18:14;;;;;;;1.88;1.10;;;18.00;99.90;;;;;;5006565;28;20227;-78
2021/05/17 09:20:46;;;;;;;0.80;0.80;;;17.90;99.90;;;;;;5005850;28;20179;-78
2021/05/17 09:23:15;;;;;;;1.05;0.82;;;17.60;99.90;;;;;;5008950;28;20692;-80
2021/05/17 09:26:01;;;;;;;1.10;1.00;;;17.30;99.90;;;;;;5007211;28;20510;-78
2021/05/17 09:28:44;;;;;;;1.40;1.13;;;17.30;99.90;;;;;;5009628;28;20203;-78
2021/05/17 09:31:12;;;;;;;2.28;1.45;;;17.20;99.90;;;;;;5009708;28;20176;-79
2021/05/17 09:33:47;;;;;;;1.40;1.30;;;16.90;99.90;;;;;;5024074;28;20720;-78
2021/05/17 09:36:36;;;;;;;1.65;1.35;;;16.90;99.90;;;;;;5009331;28;20191;-78
2021/05/17 09:39:06;;;;;;;2.70;1.55;;;16.90;99.90;;;;;;5009618;28;20167;-78
2021/05/17 09:41:43;;;;;;;1.38;1.27;;;16.80;99.90;;;;;;5008764;28;20191;-77
2021/05/17 09:44:11;;;;;;;2.55;1.23;;;16.90;99.90;;;;;;5010694;28;20218;-78
2021/05/17 09:47:00;;;;;;;1.63;1.15;;;17.00;99.90;;;;;;5025544;28;20222;-78
2021/05/17 09:49:44;;;;;;;1.92;1.20;;;17.00;99.90;;;;;;5003630;28;20208;-77
2021/05/17 09:52:25;;;;;;;3.03;1.45;;;17.30;99.90;;;;;;5007427;28;20242;-77
2021/05/17 09:54:54;;;;;;;1.65;1.27;;;17.30;99.90;;;;;;5013679;28;20183;-78
2021/05/17 09:57:32;;;;;;;2.20;1.60;;;17.20;99.90;;;;;;5022732;28;20203;-76
2021/05/17 10:00:08;;;;;;;1.70;1.30;;;17.30;99.90;;;;;;5015104;28;20167;-78
2021/05/17 10:02:37;;;;;;;2.28;1.50;;;17.20;99.90;;;;;;5011951;28;20195;-77
2021/05/17 10:05:14;;;;;;;1.35;1.10;;;17.10;99.90;;;;;;5012275;28;20172;-78
2021/05/17 10:07:41;;;;;;;1.65;1.42;;;17.40;99.90;;;;;;5014340;28;20802;-77
2021/05/17 10:10:08;;;;;;;3.38;1.98;;;17.30;99.90;;;;;;5014121;28;20175;-77
2021/05/17 10:12:34;;;;;;;3.83;1.65;;;17.20;99.90;;;;;;5015617;28;20218;-78
2021/05/17 10:15:01;;;;;;;3.22;1.73;;;17.10;99.90;;;;;;5011375;28;20211;-77
2021/05/17 10:17:27;;;;;;;1.67;1.38;;;17.00;99.90;;;;;;5006635;28;20210;-77
2021/05/17 10:19:53;;;;;;;1.30;1.20;;;17.10;99.90;;;;;;5009081;28;20238;-76
2021/05/17 10:22:18;;;;;;;1.55;1.45;;;17.20;99.90;;;;;;5009809;28;20192;-76
2021/05/17 10:24:44;;;;;;;2.17;1.33;;;17.20;99.90;;;;;;5007973;28;20552;-76
2021/05/17 10:27:10;;;;;;;1.65;1.40;;;17.40;99.90;;;;;;5008679;28;20636;-77
2021/05/17 10:29:38;;;;;;;2.00;1.35;;;17.40;99.90;;;;;;5009962;28;20184;-78
2021/05/17 10:32:07;;;;;;;3.40;1.45;;;17.30;99.90;;;;;;5008845;28;20182;-78
2021/05/17 10:34:47;;;;;;;1.08;0.95;;;17.50;99.90;;;;;;5011237;28;20207;-78
2021/05/17 10:37:20;;;;;;;2.15;0.93;;;17.90;99.90;;;;;;5012362;28;20206;-78
2021/05/17 10:39:54;;;;;;;0.93;0.93;;;17.80;99.90;;;;;;5011023;28;20198;-78
2021/05/17 10:42:36;;;;;;;0.88;0.82;;;18.40;99.90;;;;;;5009420;28;20210;-77
2021/05/17 10:48:15;;;;;;;0.82;0.82;;;19.10;99.90;;;;;;5008188;28;20714;-77
2021/05/17 10:50:43;;;;;;;0.60;0.60;;;19.00;99.90;;;;;;5008678;28;20547;-77
2021/05/17 10:53:43;;;;;;;0.80;0.60;;;19.00;99.90;;;;;;5004907;28;20192;-77
2021/05/17 10:56:11;;;;;;;0.93;0.82;;;18.70;99.90;;;;;;5008552;28;20211;-77
2021/05/17 11:01:58;;;;;;;0.93;0.60;;;18.50;99.90;;;;;;5006842;28;20194;-78
2021/05/17 11:04:32;;;;;;;1.33;0.70;;;18.50;99.90;;;;;;5007174;28;20203;-78
2021/05/17 11:07:09;;;;;;;0.68;0.68;;;19.10;99.90;;;;;;5007709;28;20345;-77
2021/05/17 11:10:00;;;;;;;0.70;0.70;;;19.50;99.90;;;;;;5008978;28;20183;-77
2021/05/17 11:12:26;;;;;;;0.80;0.35;;;19.80;99.90;;;;;;5011773;28;20184;-77
2021/05/17 11:15:10;;;;;;;1.00;0.75;;;19.70;99.90;;;;;;5014656;28;20286;-78
2021/05/17 11:18:02;;;;;;;0.40;0.40;;;19.50;99.90;;;;;;5016387;28;20669;-78
2021/05/17 11:20:40;;;;;;;0.50;0.40;;;19.40;99.90;;;;;;5016927;28;20245;-77
2021/05/17 11:23:07;;;;;;;0.30;0.30;;;19.50;99.90;;;;;;5010515;28;20211;-77
2021/05/17 11:25:48;;;;;;;0.32;0.32;;;19.60;99.90;;;;;;5012253;28;20172;-77
2021/05/17 11:28:15;;;;;;;0.60;0.40;;;19.30;99.90;;;;;;5012252;28;20195;-77
2021/05/17 11:30:42;;;;;;;0.43;0.43;;;19.60;99.90;;;;;;5011875;28;20187;-77
2021/05/17 11:33:19;;;;;;;0.30;0.30;;;20.00;99.90;;;;;;5012480;28;20237;-77
2021/05/17 11:36:01;;;;;;;0.30;0.30;;;19.90;99.90;;;;;;5011639;28;20214;-76
2021/05/17 11:38:27;;;;;;;0.43;0.40;;;19.70;99.90;;;;;;5010609;28;20946;-77
2021/05/17 11:40:52;;;;;;;0.88;0.40;;;19.50;99.90;;;;;;5013770;28;20186;-77
2021/05/17 11:43:21;;;;;;;0.50;0.30;;;19.70;99.90;;;;;;5013052;28;20267;-77
2021/05/17 11:45:47;;;;;;;0.10;0.10;;;19.80;99.90;;;;;;5010755;28;20180;-77
2021/05/17 11:48:12;;;;;;;0.30;0.30;;;19.60;99.90;;;;;;5004877;28;20666;-77
2021/05/17 11:50:38;;;;;;;0.15;0.15;;;19.90;99.90;;;;;;5003545;28;20179;-77
2021/05/17 11:53:05;;;;;;;0.55;0.30;;;20.40;99.90;;;;;;5005114;28;20219;-76
2021/05/17 11:55:31;;;;;;;0.93;0.30;;;20.50;99.90;;;;;;5012854;28;20187;-78
2021/05/17 11:57:57;;;;;;;0.22;0.22;;;20.80;99.90;;;;;;5013847;28;20513;-77
2021/05/17 12:00:25;;;;;;;0.50;0.50;;;21.00;99.90;;;;;;5014013;28;20190;-77
2021/05/17 12:02:55;;;;;;;0.20;0.20;;;21.20;99.90;;;;;;5014848;28;20713;-77
2021/05/17 12:05:23;;;;;;;0.35;0.28;;;21.30;99.90;;;;;;5014180;28;20436;-76
2021/05/17 12:07:51;;;;;;;0.28;0.28;;;21.00;99.90;;;;;;5012948;28;20215;-77
2021/05/17 12:10:18;;;;;;;0.20;0.20;;;20.80;99.90;;;;;;5014405;28;20180;-78
2021/05/17 12:12:44;;;;;;;0.40;0.30;;;20.40;99.90;;;;;;5012760;28;20180;-78
2021/05/17 12:15:15;;;;;;;1.17;0.43;;;20.10;99.90;;;;;;5012932;28;20175;-77
2021/05/17 12:17:41;;;;;;;0.75;0.30;;;20.20;99.90;;;;;;5013634;28;20652;-77
2021/05/17 12:20:09;;;;;;;0.60;0.52;;;20.00;99.90;;;;;;5013975;28;20251;-76
2021/05/17 12:22:37;;;;;;;0.52;0.40;;;19.60;99.90;;;;;;5012255;28;20696;-77
2021/05/17 12:25:09;;;;;;;0.57;0.57;;;18.40;99.90;;;;;;5010990;28;20211;-76
2021/05/17 12:27:35;;;;;;;0.60;0.60;;;17.40;99.90;;;;;;5011793;28;20200;-77
2021/05/17 12:30:06;;;;;;;0.68;0.68;;;16.40;99.90;;;;;;5009423;28;20523;-77
2021/05/17 12:32:35;;;;;;;0.43;0.43;;;15.60;99.90;;;;;;5006927;28;20191;-76
2021/05/17 12:35:10;;;;;;;0.50;0.50;;;15.20;99.90;;;;;;5008959;28;20180;-78
2021/05/17 12:37:48;;;;;;;0.80;0.65;;;14.80;99.90;;;;;;5014881;28;20203;-79
2021/05/17 12:40:25;;;;;;;1.15;0.60;;;15.10;99.90;;;;;;5017548;28;20179;-78
2021/05/17 12:43:14;;;;;;;0.43;0.43;;;15.50;99.90;;;;;;5016374;28;20536;-79
2021/05/17 12:46:01;;;;;;;0.20;0.20;;;15.80;99.90;;;;;;5032506;28;20180;-78
2021/05/17 12:48:39;;;;;;;0.15;0.15;;;16.40;99.90;;;;;;5017713;28;20290;-78
2021/05/17 12:51:25;;;;;;;0.30;0.30;;;16.50;99.90;;;;;;5018275;28;20179;-78
2021/05/17 12:53:53;;;;;;;0.63;0.30;;;17.10;99.90;;;;;;5018216;28;20207;-78
2021/05/17 12:56:27;;;;;;;0.20;0.20;;;17.40;99.90;;;;;;5017410;28;20580;-77
2021/05/17 12:58:52;;;;;;;0.50;0.50;;;17.70;99.90;;;;;;5016706;28;20206;-77
2021/05/17 13:01:20;;;;;;;0.20;0.20;;;17.80;99.90;;;;;;5015998;28;20191;-78
2021/05/17 13:03:49;;;;;;;0.30;0.30;;;18.20;99.90;;;;;;5015549;28;20442;-77
2021/05/17 13:06:27;;;;;;;0.20;0.20;;;18.60;99.90;;;;;;5013902;28;20211;-78
2021/05/17 13:08:56;;;;;;;0.30;0.20;;;18.80;99.90;;;;;;5010193;28;20214;-78
2021/05/17 13:11:22;;;;;;;0.20;0.20;;;18.60;99.90;;;;;;5007905;28;20198;-77
2021/05/17 13:13:51;;;;;;;0.20;0.20;;;18.20;99.90;;;;;;5015701;28;20191;-78
2021/05/17 13:16:21;;;;;;;0.20;0.20;;;17.70;99.90;;;;;;5018236;28;20206;-77
2021/05/17 13:18:54;;;;;;;0.30;0.30;;;17.30;99.90;;;;;;5018026;28;20191;-77
2021/05/17 13:30:30;;;;;;;0.43;0.40;;;17.00;99.90;;;;;;5018048;28;20274;-77
2021/05/17 13:32:49;;;;;;;0.43;0.43;;;17.20;99.90;;;;;;5014594;28;20354;-76
2021/05/17 13:35:16;;;;;;;0.30;0.30;;;17.50;99.90;;;;;;5015937;28;20179;-78